createdAt,value
2018-12-05T00:00:31.138Z,85.12
2018-12-05T00:03:01.062Z,84.75
2018-12-05T00:05:30.585Z,85.28
2018-12-05T00:08:00.095Z,85.01
2018-12-05T00:10:29.646Z,85.00
2018-12-05T00:12:59.143Z,85.58
2018-12-05T00:15:28.670Z,85.54
2018-12-05T00:17:58.180Z,85.67
2018-12-05T00:20:27.729Z,85.01
2018-12-05T00:22:57.246Z,84.84
2018-12-05T00:25:26.791Z,85.16
2018-12-05T00:27:56.297Z,85.89
2018-12-05T00:30:25.815Z,85.71
2018-12-05T00:32:55.335Z,86.12
2018-12-05T00:35:24.879Z,85.39
2018-12-05T00:37:54.386Z,85.87
2018-12-05T00:40:23.938Z,86.49
2018-12-05T00:42:53.463Z,85.66
2018-12-05T00:45:23.031Z,85.93
2018-12-05T00:47:52.697Z,85.97
2018-12-05T00:50:22.234Z,85.94
2018-12-05T00:52:51.755Z,85.93
2018-12-05T00:55:21.290Z,85.44
2018-12-05T00:57:50.834Z,86.15
2018-12-05T01:00:20.526Z,85.82
2018-12-05T01:02:50.034Z,86.25
2018-12-05T01:05:19.878Z,86.27
2018-12-05T01:07:49.599Z,85.77
2018-12-05T01:10:19.782Z,86.16
2018-12-05T01:12:49.297Z,85.81
2018-12-05T01:15:18.866Z,86.01
2018-12-05T01:17:48.373Z,86.31
2018-12-05T01:20:17.925Z,86.20
2018-12-05T01:22:47.434Z,86.41
2018-12-05T01:25:16.970Z,86.38
2018-12-05T01:27:46.482Z,86.52
2018-12-05T01:30:16.024Z,86.43
2018-12-05T01:32:45.534Z,86.39
2018-12-05T01:35:15.066Z,86.85
2018-12-05T01:37:44.726Z,86.34
2018-12-05T01:40:14.286Z,86.66
2018-12-05T01:42:43.945Z,86.53
2018-12-05T01:45:13.527Z,87.15
2018-12-05T01:47:43.115Z,87.25
2018-12-05T01:50:12.802Z,87.27
2018-12-05T01:52:42.309Z,87.01
2018-12-05T01:55:12.490Z,86.41
2018-12-05T01:57:42.074Z,86.71
2018-12-05T02:00:11.726Z,87.06
2018-12-05T02:02:41.273Z,86.71
2018-12-05T02:05:10.783Z,86.86
2018-12-05T02:07:40.723Z,86.70
2018-12-05T02:10:10.294Z,87.44
2018-12-05T02:12:39.794Z,87.21
2018-12-05T02:15:09.331Z,87.52
2018-12-05T02:17:38.898Z,87.42
2018-12-05T02:20:08.575Z,87.08
2018-12-05T02:22:38.119Z,87.22
2018-12-05T02:25:07.642Z,86.99
2018-12-05T02:27:37.142Z,87.38
2018-12-05T02:30:07.287Z,87.52
2018-12-05T02:32:36.915Z,87.35
2018-12-05T02:35:06.452Z,87.65
2018-12-05T02:37:36.007Z,86.81
2018-12-05T02:40:06.992Z,87.28
2018-12-05T02:42:36.541Z,87.64
2018-12-05T02:45:06.619Z,86.85
2018-12-05T02:47:36.208Z,87.51
2018-12-05T02:50:05.894Z,87.62
2018-12-05T02:52:35.441Z,88.29
2018-12-05T02:55:05.180Z,88.64
2018-12-05T02:57:34.719Z,87.44
2018-12-05T03:00:05.606Z,87.65
2018-12-05T03:02:35.138Z,87.39
2018-12-05T03:05:05.686Z,87.68
2018-12-05T03:07:35.215Z,88.32
2018-12-05T03:10:05.419Z,87.53
2018-12-05T03:12:34.908Z,87.54
2018-12-05T03:15:04.919Z,87.31
2018-12-05T03:17:34.458Z,88.06
2018-12-05T03:20:05.364Z,88.34
2018-12-05T03:22:35.109Z,88.14
2018-12-05T03:25:05.463Z,88.02
2018-12-05T03:27:34.982Z,88.70
2018-12-05T03:30:04.856Z,88.52
2018-12-05T03:32:34.483Z,88.41
2018-12-05T03:35:04.156Z,88.33
2018-12-05T03:37:33.679Z,87.90
2018-12-05T03:40:03.342Z,87.59
2018-12-05T03:42:32.926Z,87.89
2018-12-05T03:45:02.662Z,88.12
2018-12-05T03:47:32.224Z,88.23
2018-12-05T03:50:03.056Z,88.75
2018-12-05T03:52:32.712Z,88.54
2018-12-05T03:55:02.235Z,88.42
2018-12-05T03:57:31.791Z,88.26
2018-12-05T04:00:01.350Z,88.61
2018-12-05T04:02:30.874Z,88.09
2018-12-05T04:05:00.398Z,88.28
2018-12-05T04:07:29.951Z,88.49
2018-12-05T04:09:59.447Z,88.50
2018-12-05T04:12:28.967Z,88.10
2018-12-05T04:14:58.663Z,88.96
2018-12-05T04:17:28.171Z,89.29
2018-12-05T04:19:57.674Z,89.71
2018-12-05T04:22:27.242Z,90.35
2018-12-05T04:24:56.758Z,90.38
2018-12-05T04:27:27.320Z,89.62
2018-12-05T04:29:56.826Z,89.47
2018-12-05T04:32:26.326Z,88.84
2018-12-05T04:34:55.861Z,89.02
2018-12-05T04:37:25.374Z,88.96
2018-12-05T04:39:54.878Z,88.51
2018-12-05T04:42:24.730Z,88.68
2018-12-05T04:44:54.238Z,88.25
2018-12-05T04:47:23.871Z,88.21
2018-12-05T04:49:53.429Z,87.81
2018-12-05T04:52:22.919Z,88.18
2018-12-05T04:54:52.490Z,88.16
2018-12-05T04:57:22.074Z,88.50
2018-12-05T04:59:51.579Z,88.84
2018-12-05T05:02:21.112Z,88.66
2018-12-05T05:04:50.650Z,88.70
2018-12-05T05:07:20.167Z,88.09
2018-12-05T05:09:49.779Z,87.92
2018-12-05T05:12:19.310Z,87.99
2018-12-05T05:14:48.811Z,88.53
2018-12-05T05:17:18.646Z,89.09
2018-12-05T05:19:48.454Z,89.37
2018-12-05T05:22:18.007Z,89.07
2018-12-05T05:24:47.517Z,89.57
2018-12-05T05:27:17.066Z,89.66
2018-12-05T05:29:46.586Z,89.57
2018-12-05T05:32:16.112Z,90.26
2018-12-05T05:34:45.622Z,90.16
2018-12-05T05:37:15.290Z,89.90
2018-12-05T05:39:44.801Z,89.60
2018-12-05T05:42:15.362Z,89.91
2018-12-05T05:44:44.858Z,90.03
2018-12-05T05:47:14.405Z,89.55
2018-12-05T05:49:43.918Z,89.72
2018-12-05T05:52:13.447Z,90.30
2018-12-05T05:54:42.949Z,90.42
2018-12-05T05:57:12.467Z,90.39
2018-12-05T05:59:42.003Z,90.06
2018-12-05T06:02:11.551Z,90.32
2018-12-05T06:04:41.075Z,90.79
2018-12-05T06:07:10.631Z,89.88
2018-12-05T06:09:40.185Z,89.75
2018-12-05T06:12:09.724Z,89.76
2018-12-05T06:14:39.657Z,88.99
2018-12-05T06:17:09.215Z,89.75
2018-12-05T06:19:38.727Z,89.65
2018-12-05T06:22:08.232Z,89.31
2018-12-05T06:24:37.770Z,89.55
2018-12-05T06:27:07.302Z,89.37
2018-12-05T06:29:36.787Z,89.25
2018-12-05T06:32:06.454Z,89.27
2018-12-05T06:34:35.951Z,89.87
2018-12-05T06:37:05.510Z,89.25
2018-12-05T06:39:35.018Z,89.60
2018-12-05T06:42:04.560Z,89.89
2018-12-05T06:44:34.069Z,89.95
2018-12-05T06:47:03.622Z,90.08
2018-12-05T06:49:33.117Z,90.21
2018-12-05T06:52:02.644Z,89.52
2018-12-05T06:54:32.152Z,89.53
2018-12-05T06:57:01.686Z,89.58
2018-12-05T06:59:31.203Z,88.31
2018-12-05T07:02:00.746Z,89.45
2018-12-05T07:04:30.255Z,89.33
2018-12-05T07:07:00.089Z,89.27
2018-12-05T07:09:29.586Z,89.88
2018-12-05T07:11:59.134Z,89.63
2018-12-05T07:14:28.634Z,89.52
2018-12-05T07:16:58.162Z,89.52
2018-12-05T07:19:27.657Z,88.87
2018-12-05T07:21:57.182Z,89.23
2018-12-05T07:24:26.666Z,89.49
2018-12-05T07:26:56.192Z,89.47
2018-12-05T07:29:25.693Z,89.61
2018-12-05T07:31:55.210Z,89.54
2018-12-05T07:34:24.703Z,88.86
2018-12-05T07:36:54.226Z,89.30
2018-12-05T07:39:23.731Z,88.65
2018-12-05T07:41:53.250Z,89.08
2018-12-05T07:44:22.738Z,89.36
2018-12-05T07:46:52.247Z,89.29
2018-12-05T07:49:21.754Z,89.22
2018-12-05T07:51:51.294Z,89.58
2018-12-05T07:54:20.799Z,89.68
2018-12-05T07:56:50.712Z,89.63
2018-12-05T07:59:20.218Z,89.29
2018-12-05T08:01:49.746Z,89.13
2018-12-05T08:04:19.274Z,89.15
2018-12-05T08:06:48.814Z,89.17
2018-12-05T08:09:18.391Z,89.15
2018-12-05T08:11:47.934Z,89.14
2018-12-05T08:14:17.442Z,89.20
2018-12-05T08:16:46.983Z,89.62
2018-12-05T08:19:16.492Z,89.24
2018-12-05T08:21:46.030Z,89.15
2018-12-05T08:24:15.959Z,89.12
2018-12-05T08:26:45.494Z,88.88
2018-12-05T08:29:15.074Z,88.49
2018-12-05T08:31:44.633Z,88.73
2018-12-05T08:34:14.146Z,88.73
2018-12-05T08:36:43.651Z,88.52
2018-12-05T08:39:13.206Z,88.46
2018-12-05T08:41:42.727Z,88.29
2018-12-05T08:44:12.945Z,87.73
2018-12-05T08:46:42.931Z,87.77
2018-12-05T08:49:12.475Z,87.93
2018-12-05T08:51:41.978Z,87.59
2018-12-05T08:54:11.510Z,87.03
2018-12-05T08:56:41.036Z,86.90
2018-12-05T08:59:10.583Z,87.09
2018-12-05T09:01:40.074Z,86.32
2018-12-05T09:04:09.590Z,86.18
2018-12-05T09:06:39.103Z,86.50
2018-12-05T09:09:08.768Z,85.52
2018-12-05T09:11:38.264Z,85.48
2018-12-05T09:14:07.790Z,85.09
2018-12-05T09:16:37.297Z,85.31
2018-12-05T09:19:06.866Z,85.49
2018-12-05T09:21:36.335Z,85.11
2018-12-05T09:24:05.886Z,85.19
2018-12-05T09:26:35.374Z,84.75
2018-12-05T09:29:04.922Z,84.31
2018-12-05T09:31:34.407Z,84.12
2018-12-05T09:34:03.932Z,83.97
2018-12-05T09:36:33.431Z,83.56
2018-12-05T09:39:03.082Z,83.44
2018-12-05T09:41:32.670Z,83.22
2018-12-05T09:44:02.187Z,82.08
2018-12-05T09:46:31.670Z,82.35
2018-12-05T09:49:01.196Z,82.36
2018-12-05T09:51:30.923Z,82.84
2018-12-05T09:54:00.650Z,81.95
2018-12-05T09:56:30.456Z,82.92
2018-12-05T09:59:00.055Z,82.48
2018-12-05T10:01:29.560Z,82.63
2018-12-05T10:03:59.094Z,81.81
2018-12-05T10:06:28.606Z,81.92
2018-12-05T10:08:58.139Z,81.98
2018-12-05T10:11:27.650Z,81.47
2018-12-05T10:13:57.166Z,81.67
2018-12-05T10:16:26.707Z,81.27
2018-12-05T10:18:56.254Z,80.69
2018-12-05T10:21:25.762Z,79.68
2018-12-05T10:23:55.591Z,79.39
2018-12-05T10:26:25.078Z,79.10
2018-12-05T10:28:54.610Z,78.73
2018-12-05T10:31:24.102Z,78.96
2018-12-05T10:33:53.614Z,77.85
2018-12-05T10:36:23.085Z,78.19
2018-12-05T10:38:52.570Z,77.67
2018-12-05T10:41:22.093Z,78.46
2018-12-05T10:43:51.742Z,76.20
2018-12-05T10:46:21.235Z,75.57
2018-12-05T10:48:50.746Z,76.70
2018-12-05T10:51:20.242Z,76.34
2018-12-05T10:53:49.752Z,75.12
2018-12-05T10:56:19.371Z,75.69
2018-12-05T10:58:48.906Z,74.60
2018-12-05T11:01:23.790Z,74.68
2018-12-05T11:03:53.382Z,74.04
2018-12-05T11:06:28.114Z,74.06
2018-12-05T11:09:03.017Z,74.80
2018-12-05T11:11:37.730Z,74.67
2018-12-05T11:14:12.579Z,74.27
2018-12-05T11:16:50.430Z,74.25
2018-12-05T11:19:25.120Z,73.31
2018-12-05T11:21:59.775Z,74.16
2018-12-05T11:24:33.278Z,72.58
2018-12-05T11:27:02.786Z,73.86
2018-12-05T11:29:32.366Z,72.40
2018-12-05T11:32:02.066Z,72.31
2018-12-05T11:34:31.546Z,72.42
2018-12-05T11:37:01.222Z,72.67
2018-12-05T11:39:30.694Z,72.29
2018-12-05T11:42:00.199Z,71.40
2018-12-05T11:44:29.680Z,71.92
2018-12-05T11:46:59.218Z,71.77
2018-12-05T11:49:28.712Z,71.20
2018-12-05T11:51:58.236Z,71.91
2018-12-05T11:54:27.856Z,70.72
2018-12-05T11:56:57.362Z,71.08
2018-12-05T11:59:27.106Z,71.41
2018-12-05T12:01:56.662Z,71.10
2018-12-05T12:04:26.160Z,71.93
2018-12-05T12:06:55.694Z,70.14
2018-12-05T12:09:25.179Z,70.55
2018-12-05T12:11:54.694Z,71.01
2018-12-05T12:14:24.199Z,72.03
2018-12-05T12:16:53.985Z,71.99
2018-12-05T12:19:23.474Z,71.72
2018-12-05T12:21:53.006Z,71.69
2018-12-05T12:24:23.371Z,71.70
2018-12-05T12:26:52.894Z,71.70
2018-12-05T12:29:22.486Z,72.36
2018-12-05T12:31:52.330Z,72.62
2018-12-05T12:34:22.015Z,72.73
2018-12-05T12:36:51.565Z,73.26
2018-12-05T12:39:21.651Z,72.38
2018-12-05T12:41:51.194Z,72.36
2018-12-05T12:44:20.782Z,73.54
2018-12-05T12:46:50.294Z,73.64
2018-12-05T12:49:19.796Z,72.90
2018-12-05T12:51:49.318Z,72.78
2018-12-05T12:54:18.838Z,73.18
2018-12-05T12:56:48.359Z,72.56
2018-12-05T12:59:17.886Z,72.30
2018-12-05T13:01:47.807Z,73.26
2018-12-05T13:04:17.320Z,72.15
2018-12-05T13:06:46.853Z,72.51
2018-12-05T13:09:16.434Z,72.61
2018-12-05T13:11:45.947Z,73.15
2018-12-05T13:14:15.459Z,72.61
2018-12-05T13:16:44.970Z,72.68
2018-12-05T13:19:14.443Z,72.87
2018-12-05T13:21:43.975Z,72.80
2018-12-05T13:24:13.486Z,73.65
2018-12-05T13:26:42.994Z,73.11
2018-12-05T13:29:12.506Z,72.83
2018-12-05T13:31:42.014Z,72.82
2018-12-05T13:34:11.538Z,72.46
2018-12-05T13:36:41.069Z,72.65
2018-12-05T13:39:10.595Z,72.00
2018-12-05T13:41:40.107Z,72.84
2018-12-05T13:44:16.027Z,73.23
2018-12-05T13:46:45.562Z,72.80
2018-12-05T13:49:15.191Z,73.07
2018-12-05T13:51:44.833Z,73.20
2018-12-05T13:54:14.524Z,73.72
2018-12-05T13:56:44.027Z,72.23
2018-12-05T13:59:13.574Z,73.05
2018-12-05T14:01:43.179Z,72.59
2018-12-05T14:04:12.674Z,72.22
2018-12-05T14:06:42.222Z,72.40
2018-12-05T14:09:11.722Z,71.67
2018-12-05T14:11:41.266Z,71.81
2018-12-05T14:14:10.760Z,72.13
2018-12-05T14:16:40.286Z,71.73
2018-12-05T14:19:09.790Z,71.99
2018-12-05T14:21:39.333Z,72.91
2018-12-05T14:24:09.180Z,73.17
2018-12-05T14:26:38.967Z,71.67
2018-12-05T14:29:08.765Z,72.11
2018-12-05T14:31:38.651Z,72.80
2018-12-05T14:34:08.238Z,71.79
2018-12-05T14:36:38.116Z,72.56
2018-12-05T14:39:08.366Z,72.67
2018-12-05T14:41:38.214Z,72.31
2018-12-05T14:44:08.487Z,72.92
2018-12-05T14:46:38.410Z,72.62
2018-12-05T14:49:08.092Z,72.65
2018-12-05T14:51:37.906Z,73.14
2018-12-05T14:54:08.062Z,73.03
2018-12-05T14:56:38.562Z,73.17
2018-12-05T14:59:08.517Z,73.37
2018-12-05T15:01:38.492Z,72.40
2018-12-05T15:04:08.289Z,72.40
2018-12-05T15:06:38.676Z,72.61
2018-12-05T15:09:08.962Z,73.09
2018-12-05T15:11:38.946Z,73.50
2018-12-05T15:14:08.813Z,73.67
2018-12-05T15:16:38.724Z,73.63
2018-12-05T15:19:08.515Z,73.15
2018-12-05T15:21:38.280Z,73.15
2018-12-05T15:24:09.647Z,73.04
2018-12-05T15:26:39.662Z,73.32
2018-12-05T15:29:09.461Z,73.57
2018-12-05T15:31:39.083Z,73.55
2018-12-05T15:34:08.699Z,73.54
2018-12-05T15:36:38.552Z,73.33
2018-12-05T15:39:09.038Z,73.59
2018-12-05T15:41:38.738Z,73.70
2018-12-05T15:44:08.258Z,73.92
2018-12-05T15:46:38.211Z,73.64
2018-12-05T15:49:07.851Z,74.23
2018-12-05T15:51:37.559Z,72.84
2018-12-05T15:54:08.094Z,73.19
2018-12-05T15:56:38.116Z,73.11
2018-12-05T15:59:08.019Z,73.17
2018-12-05T16:01:37.759Z,73.53
2018-12-05T16:04:07.514Z,73.17
2018-12-05T16:06:37.502Z,72.35
2018-12-05T16:09:08.209Z,73.40
2018-12-05T16:11:38.146Z,73.59
2018-12-05T16:14:08.064Z,72.42
2018-12-05T16:16:37.998Z,73.20
2018-12-05T16:19:07.687Z,71.94
2018-12-05T16:21:37.208Z,72.09
2018-12-05T16:24:06.815Z,72.31
2018-12-05T16:26:36.710Z,72.13
2018-12-05T16:29:06.572Z,72.53
2018-12-05T16:31:36.497Z,71.72
2018-12-05T16:34:06.370Z,71.34
2018-12-05T16:36:36.307Z,71.25
2018-12-05T16:39:08.049Z,71.46
2018-12-05T16:41:37.993Z,72.04
2018-12-05T16:44:12.796Z,71.18
2018-12-05T16:46:39.771Z,70.77
2018-12-05T16:49:09.617Z,71.83
2018-12-05T16:51:39.526Z,71.24
2018-12-05T16:54:09.390Z,71.71
2018-12-05T16:56:40.286Z,71.47
2018-12-05T16:59:10.163Z,71.65
2018-12-05T17:01:40.115Z,71.38
2018-12-05T17:04:09.977Z,71.35
2018-12-05T17:06:39.789Z,71.30
2018-12-05T17:09:09.592Z,71.62
2018-12-05T17:11:39.466Z,71.76
2018-12-05T17:14:09.332Z,71.32
2018-12-05T17:16:39.207Z,71.89
2018-12-05T17:19:08.738Z,70.96
2018-12-05T17:21:38.255Z,70.11
2018-12-05T17:24:07.747Z,71.27
2018-12-05T17:26:37.278Z,70.83
2018-12-05T17:29:06.762Z,71.00
2018-12-05T17:31:36.273Z,70.98
2018-12-05T17:34:05.754Z,71.52
2018-12-05T17:36:35.291Z,72.39
2018-12-05T17:39:07.506Z,71.40
2018-12-05T17:41:37.054Z,71.90
2018-12-05T17:44:06.658Z,71.16
2018-12-05T17:46:36.186Z,72.04
2018-12-05T17:49:05.708Z,72.13
2018-12-05T17:51:35.198Z,72.42
2018-12-05T17:54:04.848Z,71.71
2018-12-05T17:56:35.142Z,72.00
2018-12-05T17:59:04.931Z,71.63
2018-12-05T18:01:34.431Z,72.16
2018-12-05T18:04:03.954Z,72.11
2018-12-05T18:06:33.446Z,72.84
2018-12-05T18:09:03.094Z,72.48
2018-12-05T18:11:32.575Z,72.44
2018-12-05T18:14:02.098Z,72.03
2018-12-05T18:16:31.595Z,72.52
2018-12-05T18:19:01.103Z,72.28
2018-12-05T18:21:30.610Z,72.36
2018-12-05T18:24:00.114Z,72.37
2018-12-05T18:26:29.606Z,72.42
2018-12-05T18:28:59.199Z,72.41
2018-12-05T18:31:28.809Z,71.81
2018-12-05T18:33:58.287Z,71.87
2018-12-05T18:36:27.826Z,71.97
2018-12-05T18:38:57.320Z,72.35
2018-12-05T18:41:26.811Z,72.56
2018-12-05T18:43:56.346Z,72.36
2018-12-05T18:46:25.866Z,71.48
2018-12-05T18:48:55.367Z,72.70
2018-12-05T18:51:24.925Z,71.71
2018-12-05T18:53:54.450Z,71.90
2018-12-05T18:56:23.982Z,71.29
2018-12-05T18:58:53.615Z,72.28
2018-12-05T19:01:23.186Z,72.04
2018-12-05T19:03:52.743Z,71.60
2018-12-05T19:06:23.024Z,71.14
2018-12-05T19:08:53.013Z,71.95
2018-12-05T19:11:22.677Z,71.49
2018-12-05T19:13:57.663Z,72.34
2018-12-05T19:16:27.194Z,72.35
2018-12-05T19:18:56.710Z,72.07
2018-12-05T19:21:26.248Z,71.94
2018-12-05T19:23:55.844Z,72.61
2018-12-05T19:26:25.414Z,72.47
2018-12-05T19:28:55.017Z,72.27
2018-12-05T19:31:24.570Z,72.52
2018-12-05T19:33:54.167Z,72.41
2018-12-05T19:36:23.724Z,72.96
2018-12-05T19:38:53.375Z,72.30
2018-12-05T19:41:22.956Z,73.03
2018-12-05T19:43:52.464Z,72.00
2018-12-05T19:46:22.281Z,72.81
2018-12-05T19:48:52.206Z,72.61
2018-12-05T19:51:21.747Z,73.02
2018-12-05T19:53:51.297Z,73.22
2018-12-05T19:56:20.838Z,73.96
2018-12-05T19:58:50.382Z,74.14
2018-12-05T20:01:19.980Z,73.53
2018-12-05T20:03:49.529Z,74.01
2018-12-05T20:06:19.294Z,74.16
2018-12-05T20:08:48.874Z,74.93
2018-12-05T20:11:18.395Z,74.59
2018-12-05T20:13:48.370Z,75.28
2018-12-05T20:16:19.035Z,75.47
2018-12-05T20:18:48.593Z,75.43
2018-12-05T20:21:18.125Z,75.36
2018-12-05T20:23:47.688Z,76.10
2018-12-05T20:26:17.294Z,76.29
2018-12-05T20:28:46.817Z,76.42
2018-12-05T20:31:16.358Z,77.82
2018-12-05T20:33:45.995Z,77.66
2018-12-05T20:36:15.522Z,78.44
2018-12-05T20:38:45.089Z,78.30
2018-12-05T20:41:14.695Z,78.59
2018-12-05T20:43:44.287Z,78.86
2018-12-05T20:46:13.914Z,78.05
2018-12-05T20:48:43.501Z,78.83
2018-12-05T20:51:13.150Z,78.27
2018-12-05T20:53:42.695Z,78.56
2018-12-05T20:56:12.250Z,78.61
2018-12-05T20:58:41.850Z,79.45
2018-12-05T21:01:46.955Z,78.98
2018-12-05T21:04:16.543Z,79.16
2018-12-05T21:06:46.095Z,78.91
2018-12-05T21:09:15.696Z,78.85
2018-12-05T21:11:45.915Z,79.00
2018-12-05T21:14:15.458Z,78.84
2018-12-05T21:16:45.091Z,78.39
2018-12-05T21:19:14.646Z,79.30
2018-12-05T21:21:44.270Z,78.53
2018-12-05T21:24:13.786Z,77.81
2018-12-05T21:26:43.403Z,77.44
2018-12-05T21:29:12.918Z,77.38
2018-12-05T21:31:42.510Z,78.92
2018-12-05T21:34:12.155Z,78.62
2018-12-05T21:36:41.681Z,78.66
2018-12-05T21:39:11.215Z,78.79
2018-12-05T21:41:40.819Z,78.56
2018-12-05T21:44:10.353Z,78.20
2018-12-05T21:46:39.845Z,78.98
2018-12-05T21:49:09.406Z,79.28
2018-12-05T21:51:38.925Z,80.63
2018-12-05T21:54:08.423Z,79.10
2018-12-05T21:56:37.970Z,79.23
2018-12-05T21:59:07.482Z,79.16
2018-12-05T22:01:36.951Z,79.30
2018-12-05T22:04:06.483Z,79.80
2018-12-05T22:06:35.954Z,80.40
2018-12-05T22:09:09.250Z,81.26
2018-12-05T22:11:38.737Z,80.73
2018-12-05T22:14:08.240Z,80.96
2018-12-05T22:16:37.762Z,81.58
2018-12-05T22:19:07.262Z,81.14
2018-12-05T22:21:36.742Z,81.37
2018-12-05T22:24:06.518Z,80.94
2018-12-05T22:26:36.014Z,81.29
2018-12-05T22:29:05.522Z,80.59
2018-12-05T22:31:35.643Z,81.96
2018-12-05T22:34:05.151Z,82.47
2018-12-05T22:36:34.642Z,83.27
2018-12-05T22:39:06.935Z,83.93
2018-12-05T22:41:36.476Z,84.54
2018-12-05T22:44:06.466Z,84.53
2018-12-05T22:46:36.132Z,85.46
2018-12-05T22:49:05.792Z,85.35
2018-12-05T22:51:35.551Z,85.65
2018-12-05T22:54:05.068Z,86.10
2018-12-05T22:56:34.582Z,86.75
2018-12-05T22:59:04.146Z,86.34
2018-12-05T23:01:34.023Z,86.31
2018-12-05T23:04:03.538Z,86.96
2018-12-05T23:06:33.122Z,86.54
2018-12-05T23:09:02.760Z,86.86
2018-12-05T23:11:32.573Z,86.87
2018-12-05T23:14:02.118Z,86.42
2018-12-05T23:16:31.620Z,86.75
2018-12-05T23:19:01.102Z,86.57
2018-12-05T23:21:30.931Z,87.21
2018-12-05T23:24:00.425Z,87.06
2018-12-05T23:26:29.938Z,87.18
2018-12-05T23:28:59.513Z,87.42
2018-12-05T23:31:29.151Z,86.76
2018-12-05T23:33:58.647Z,87.21
2018-12-05T23:36:28.190Z,87.35
2018-12-05T23:38:57.739Z,87.20
2018-12-05T23:41:27.251Z,87.12
2018-12-05T23:43:56.807Z,87.48
2018-12-05T23:46:26.322Z,87.27
2018-12-05T23:48:55.814Z,87.68
2018-12-05T23:51:25.822Z,87.34
2018-12-05T23:53:55.324Z,87.61
2018-12-05T23:56:24.831Z,86.97
2018-12-05T23:58:54.398Z,87.30
